Time;durP1;ratioP1;P1;durP2;ratioP2;P2;SDS_P1;SDS_P2;PMS_P1;PMS_P2;Temp;Humidity;BMP_temperature;BMP_pressure;BME280_temperature;BME280_humidity;BME280_pressure;Samples;Min_cycle;Max_cycle;Signal;HPM_P1;HPM_P2
2022/01/22 00:01:46;;;;;;;20.50;8.32;;;;;;;;;;6272083;28;20465;-70
2022/01/22 00:04:46;;;;;;;18.60;6.97;;;;;;;;;;6250877;28;20087;-70
2022/01/22 00:07:47;;;;;;;26.38;9.23;;;;;;;;;;6247775;28;20024;-70
2022/01/22 00:10:50;;;;;;;28.10;10.05;;;;;;;;;;6247250;28;20032;-70
2022/01/22 00:17:22;;;;;;;16.33;8.07;;;;;;;;;;6216882;28;20090;-70
2022/01/22 00:20:24;;;;;;;18.80;6.50;;;;;;;;;;6271942;28;20078;-70
2022/01/22 00:23:26;;;;;;;20.38;7.53;;;;;;;;;;6271656;28;20403;-70
2022/01/22 00:26:27;;;;;;;21.33;9.25;;;;;;;;;;6271540;28;20541;-70
2022/01/22 00:29:27;;;;;;;26.38;9.52;;;;;;;;;;6271835;28;20048;-70
2022/01/22 00:32:27;;;;;;;15.88;6.32;;;;;;;;;;6271629;28;20360;-70
2022/01/22 00:35:27;;;;;;;36.88;12.93;;;;;;;;;;6271652;28;20029;-70
2022/01/22 00:38:28;;;;;;;18.08;7.22;;;;;;;;;;6261097;28;20021;-70
2022/01/22 00:41:28;;;;;;;19.60;8.70;;;;;;;;;;6272604;28;20017;-70
2022/01/22 00:44:28;;;;;;;19.92;8.88;;;;;;;;;;6272307;28;20028;-70
2022/01/22 00:47:29;;;;;;;27.42;10.00;;;;;;;;;;6272060;28;20033;-70
2022/01/22 00:50:29;;;;;;;18.90;8.80;;;;;;;;;;6271548;28;20020;-70
2022/01/22 00:53:29;;;;;;;21.60;7.97;;;;;;;;;;6271260;28;20025;-70
2022/01/22 00:56:29;;;;;;;21.30;6.38;;;;;;;;;;6264773;28;20046;-70
2022/01/22 00:59:30;;;;;;;19.05;7.18;;;;;;;;;;6271072;28;20017;-70
2022/01/22 01:02:30;;;;;;;26.55;10.52;;;;;;;;;;6270718;28;20063;-70
2022/01/22 01:05:31;;;;;;;35.47;9.27;;;;;;;;;;6261239;28;20025;-70
2022/01/22 01:08:33;;;;;;;20.50;8.30;;;;;;;;;;6246086;28;20326;-71
2022/01/22 01:11:38;;;;;;;18.83;7.82;;;;;;;;;;6246293;28;20026;-70
2022/01/22 01:14:49;;;;;;;13.52;6.65;;;;;;;;;;6245873;28;20021;-70
2022/01/22 01:34:25;;;;;;;21.27;6.90;;;;;;;;;;6247811;28;20033;-71
2022/01/22 01:37:25;;;;;;;34.72;10.10;;;;;;;;;;6268328;28;20054;-71
2022/01/22 01:40:27;;;;;;;53.80;15.93;;;;;;;;;;6269536;28;20434;-71
2022/01/22 01:43:33;;;;;;;31.30;11.65;;;;;;;;;;6269656;28;20017;-71
2022/01/22 01:46:34;;;;;;;55.20;16.48;;;;;;;;;;6270306;28;20025;-71
2022/01/22 01:49:35;;;;;;;48.10;14.88;;;;;;;;;;6270399;28;20021;-71
2022/01/22 01:53:02;;;;;;;13.80;5.30;;;;;;;;;;6270130;28;20442;-71
2022/01/22 01:57:24;;;;;;;17.25;7.80;;;;;;;;;;6270627;28;20120;-71
2022/01/22 01:59:22;;;;;;;24.60;8.30;;;;;;;;;;6270673;28;20029;-71
2022/01/22 02:02:25;;;;;;;18.75;6.20;;;;;;;;;;6270388;28;20028;-71
2022/01/22 02:05:25;;;;;;;20.75;6.05;;;;;;;;;;6256583;28;20022;-71
2022/01/22 02:08:26;;;;;;;20.95;6.95;;;;;;;;;;6228639;28;20443;-72
2022/01/22 02:11:27;;;;;;;16.33;6.60;;;;;;;;;;6246450;28;20032;-72
2022/01/22 02:24:07;;;;;;;10.93;5.85;;;;;;;;;;6245547;28;20060;-72
2022/01/22 02:27:07;;;;;;;12.70;5.13;;;;;;;;;;6244397;28;20101;-72
2022/01/22 02:30:08;;;;;;;14.85;5.63;;;;;;;;;;6255198;28;20021;-72
2022/01/22 02:39:32;;;;;;;;;;;;;;;;;;6268890;28;20288;-72
2022/01/22 02:42:34;;;;;;;14.63;6.68;;;;;;;;;;6250280;28;19909;-72
2022/01/22 02:45:35;;;;;;;12.38;5.20;;;;;;;;;;6250602;28;20025;-72
2022/01/22 02:48:35;;;;;;;11.80;4.47;;;;;;;;;;6250140;28;20032;-72
2022/01/22 02:51:35;;;;;;;13.68;6.38;;;;;;;;;;6268880;28;20112;-72
2022/01/22 02:54:36;;;;;;;14.10;6.00;;;;;;;;;;6268006;28;20052;-72
2022/01/22 02:57:37;;;;;;;11.65;5.93;;;;;;;;;;6250271;28;20058;-72
2022/01/22 03:00:38;;;;;;;14.50;5.90;;;;;;;;;;6268007;28;20036;-72
2022/01/22 03:03:38;;;;;;;7.80;4.28;;;;;;;;;;6250104;28;20021;-72
2022/01/22 03:06:38;;;;;;;15.95;4.47;;;;;;;;;;6241900;28;20491;-72
2022/01/22 03:09:41;;;;;;;9.02;3.25;;;;;;;;;;6243524;28;20064;-72
2022/01/22 03:19:00;;;;;;;8.40;3.08;;;;;;;;;;6243475;28;20033;-72
2022/01/22 03:22:14;;;;;;;7.35;3.30;;;;;;;;;;6243363;28;20045;-72
2022/01/22 03:28:40;;;;;;;12.57;3.78;;;;;;;;;;6247979;28;20053;-72
2022/01/22 03:31:42;;;;;;;12.80;4.88;;;;;;;;;;6271374;28;20025;-73
2022/01/22 03:34:54;;;;;;;25.25;10.50;;;;;;;;;;6254370;28;20033;-72
2022/01/22 03:37:55;;;;;;;26.50;11.00;;;;;;;;;;6256718;28;20021;-72
2022/01/22 03:40:56;;;;;;;9.05;4.50;;;;;;;;;;6271533;28;20024;-72
2022/01/22 03:43:56;;;;;;;10.65;4.93;;;;;;;;;;6260810;28;20013;-72
2022/01/22 03:46:57;;;;;;;19.83;8.10;;;;;;;;;;6272871;28;20020;-72
2022/01/22 03:49:57;;;;;;;15.80;8.98;;;;;;;;;;6273167;28;20050;-72
2022/01/22 03:52:57;;;;;;;17.58;7.35;;;;;;;;;;6272447;28;20024;-72
2022/01/22 03:56:05;;;;;;;25.67;10.67;;;;;;;;;;6272743;28;20468;-72
2022/01/22 03:59:05;;;;;;;12.15;5.95;;;;;;;;;;6272157;28;20021;-73
2022/01/22 04:05:25;;;;;;;13.55;6.47;;;;;;;;;;6271897;28;20018;-72
2022/01/22 04:08:25;;;;;;;18.83;8.98;;;;;;;;;;6272304;28;20075;-72
2022/01/22 04:11:25;;;;;;;23.88;8.68;;;;;;;;;;6272081;28;20817;-72
2022/01/22 04:14:31;;;;;;;11.70;5.70;;;;;;;;;;6271555;28;20040;-72
2022/01/22 04:27:15;;;;;;;8.00;4.38;;;;;;;;;;6271570;28;20049;-71
2022/01/22 04:30:15;;;;;;;11.55;5.05;;;;;;;;;;6252966;28;20051;-71
2022/01/22 04:33:15;;;;;;;15.27;5.85;;;;;;;;;;6259010;28;20481;-71
2022/01/22 04:36:16;;;;;;;14.75;6.97;;;;;;;;;;6260383;28;20033;-72
2022/01/22 04:39:19;;;;;;;11.85;5.70;;;;;;;;;;6270323;28;20021;-72
2022/01/22 04:42:20;;;;;;;13.57;4.82;;;;;;;;;;6271253;28;20017;-72
2022/01/22 04:45:51;;;;;;;10.60;3.92;;;;;;;;;;6270467;28;20102;-72
2022/01/22 04:49:09;;;;;;;10.20;4.85;;;;;;;;;;6261759;28;20494;-72
2022/01/22 04:55:28;;;;;;;8.98;3.67;;;;;;;;;;6266319;28;20037;-72
2022/01/22 04:58:28;;;;;;;6.97;3.70;;;;;;;;;;6271121;28;20437;-72
2022/01/22 05:01:29;;;;;;;8.85;3.30;;;;;;;;;;6271475;28;20032;-72
2022/01/22 05:04:29;;;;;;;8.50;3.83;;;;;;;;;;6271036;28;20075;-72
2022/01/22 05:07:30;;;;;;;7.85;4.03;;;;;;;;;;6271719;28;20059;-72
2022/01/22 05:10:30;;;;;;;8.63;4.22;;;;;;;;;;6271279;28;20504;-72
2022/01/22 05:13:30;;;;;;;9.30;4.10;;;;;;;;;;6271227;28;20117;-72
2022/01/22 05:16:30;;;;;;;11.20;4.87;;;;;;;;;;6271167;28;20021;-72
2022/01/22 05:19:46;;;;;;;10.18;3.85;;;;;;;;;;6256973;28;20024;-72
2022/01/22 05:25:55;;;;;;;20.13;9.15;;;;;;;;;;6267387;28;20057;-72
2022/01/22 05:38:23;;;;;;;36.40;15.77;;;;;;;;;;6263981;28;20033;-72
2022/01/22 05:41:24;;;;;;;33.10;16.17;;;;;;;;;;6247749;28;20029;-72
2022/01/22 05:44:25;;;;;;;57.23;23.43;;;;;;;;;;6244641;28;20025;-73
2022/01/22 05:47:27;;;;;;;43.40;19.80;;;;;;;;;;6233768;28;20033;-72
2022/01/22 05:50:35;;;;;;;138.85;60.35;;;;;;;;;;6247506;28;20065;-73
2022/01/22 05:53:47;;;;;;;66.28;33.67;;;;;;;;;;6259879;28;20029;-72
2022/01/22 06:00:06;;;;;;;40.10;19.30;;;;;;;;;;6270626;28;19909;-72
2022/01/22 06:03:07;;;;;;;148.27;64.90;;;;;;;;;;6270050;28;20410;-72
2022/01/22 06:06:07;;;;;;;270.05;118.07;;;;;;;;;;6269591;28;20033;-72
2022/01/22 06:09:09;;;;;;;204.95;86.47;;;;;;;;;;6268972;28;20103;-72
2022/01/22 06:15:13;;;;;;;119.68;48.15;;;;;;;;;;6268261;28;19963;-72
2022/01/22 06:18:13;;;;;;;63.13;30.07;;;;;;;;;;6269300;28;20021;-72
2022/01/22 06:21:14;;;;;;;38.43;18.90;;;;;;;;;;6251204;28;20028;-72
2022/01/22 06:24:14;;;;;;;29.80;11.30;;;;;;;;;;6269439;28;20028;-72
2022/01/22 06:27:14;;;;;;;28.77;16.63;;;;;;;;;;6269859;28;20056;-72
2022/01/22 06:30:15;;;;;;;23.33;12.93;;;;;;;;;;6270266;28;20029;-72
2022/01/22 06:33:15;;;;;;;36.27;17.67;;;;;;;;;;6270252;28;20017;-71
2022/01/22 06:36:15;;;;;;;34.70;20.37;;;;;;;;;;6270428;28;20449;-71
2022/01/22 06:39:18;;;;;;;24.63;14.97;;;;;;;;;;6269352;28;20423;-71
2022/01/22 06:42:18;;;;;;;22.38;11.48;;;;;;;;;;6239522;28;20032;-71
2022/01/22 06:45:18;;;;;;;23.27;12.27;;;;;;;;;;6244483;28;20400;-71
2022/01/22 06:48:19;;;;;;;22.73;13.13;;;;;;;;;;6226708;28;20026;-71
2022/01/22 06:51:22;;;;;;;21.85;13.95;;;;;;;;;;6243915;28;20433;-71
2022/01/22 06:54:22;;;;;;;29.27;14.43;;;;;;;;;;6245709;28;20025;-71
2022/01/22 06:57:22;;;;;;;35.87;19.40;;;;;;;;;;6229698;28;20025;-71
2022/01/22 07:00:23;;;;;;;72.60;33.10;;;;;;;;;;6256050;28;20063;-71
2022/01/22 07:03:23;;;;;;;69.33;33.97;;;;;;;;;;6267440;28;20065;-71
2022/01/22 07:06:24;;;;;;;86.83;42.57;;;;;;;;;;6268357;28;20025;-71
2022/01/22 07:09:24;;;;;;;75.05;39.33;;;;;;;;;;6268572;28;20395;-71
2022/01/22 07:12:24;;;;;;;57.63;30.02;;;;;;;;;;6268467;28;20032;-71
2022/01/22 07:15:25;;;;;;;32.60;13.80;;;;;;;;;;6267866;28;20028;-71
2022/01/22 07:18:25;;;;;;;16.75;6.97;;;;;;;;;;6267912;28;20025;-71
2022/01/22 07:21:28;;;;;;;45.70;20.40;;;;;;;;;;6268250;28;20029;-71
2022/01/22 07:24:36;;;;;;;28.23;12.82;;;;;;;;;;6249656;28;20021;-71
2022/01/22 07:27:36;;;;;;;25.10;12.35;;;;;;;;;;6267676;28;20445;-71
2022/01/22 07:30:37;;;;;;;33.22;13.77;;;;;;;;;;6245799;28;20017;-71
2022/01/22 07:33:38;;;;;;;23.27;9.67;;;;;;;;;;6248172;28;20458;-71
2022/01/22 07:36:38;;;;;;;23.83;12.60;;;;;;;;;;6249139;28;20029;-71
2022/01/22 07:39:38;;;;;;;25.05;13.48;;;;;;;;;;6248990;28;20028;-71
2022/01/22 07:42:39;;;;;;;30.67;15.05;;;;;;;;;;6253889;28;20486;-71
2022/01/22 07:45:40;;;;;;;26.13;11.50;;;;;;;;;;6248448;28;20178;-71
2022/01/22 07:48:40;;;;;;;27.95;13.98;;;;;;;;;;6250792;28;20481;-71
2022/01/22 07:51:41;;;;;;;37.75;15.70;;;;;;;;;;6249274;28;20468;-71
2022/01/22 07:54:41;;;;;;;30.80;14.63;;;;;;;;;;6226219;28;20029;-71
2022/01/22 07:57:41;;;;;;;40.30;17.23;;;;;;;;;;6243697;28;20021;-71
2022/01/22 08:00:42;;;;;;;30.58;15.20;;;;;;;;;;6250325;28;20043;-71
2022/01/22 08:03:42;;;;;;;48.03;20.95;;;;;;;;;;6261475;28;20024;-71
2022/01/22 08:06:42;;;;;;;39.72;20.98;;;;;;;;;;6267330;28;20029;-71
2022/01/22 08:09:43;;;;;;;34.50;18.92;;;;;;;;;;6266981;28;20036;-71
2022/01/22 08:12:44;;;;;;;36.25;17.50;;;;;;;;;;6267084;28;20052;-72
2022/01/22 08:15:44;;;;;;;42.28;20.75;;;;;;;;;;6250538;28;20021;-71
2022/01/22 08:18:44;;;;;;;39.50;17.92;;;;;;;;;;6271367;28;20050;-71
2022/01/22 08:21:45;;;;;;;28.25;13.20;;;;;;;;;;6248441;28;20029;-72
2022/01/22 08:24:46;;;;;;;25.83;12.50;;;;;;;;;;6257284;28;20152;-72
2022/01/22 08:31:16;;;;;;;19.30;9.85;;;;;;;;;;6258645;28;20596;-72
2022/01/22 08:37:37;;;;;;;25.30;11.40;;;;;;;;;;6254372;28;20115;-72
2022/01/22 08:40:38;;;;;;;20.42;8.50;;;;;;;;;;6264955;28;20043;-72
2022/01/22 08:43:38;;;;;;;16.73;6.85;;;;;;;;;;6242011;28;20087;-72
2022/01/22 08:46:38;;;;;;;18.75;8.40;;;;;;;;;;6269031;28;20029;-72
2022/01/22 08:49:39;;;;;;;19.15;9.30;;;;;;;;;;6251240;28;20025;-72
2022/01/22 08:52:39;;;;;;;17.33;7.78;;;;;;;;;;6260235;28;20025;-72
2022/01/22 08:55:39;;;;;;;15.07;6.20;;;;;;;;;;6247724;28;20037;-72
2022/01/22 08:58:40;;;;;;;16.92;5.85;;;;;;;;;;6250341;28;20031;-72
2022/01/22 09:01:41;;;;;;;24.52;11.27;;;;;;;;;;6246808;28;20029;-72
2022/01/22 09:04:42;;;;;;;37.65;14.57;;;;;;;;;;6244145;28;20037;-72
2022/01/22 09:07:43;;;;;;;31.70;11.27;;;;;;;;;;6245030;28;20033;-72
2022/01/22 09:10:43;;;;;;;36.05;14.68;;;;;;;;;;6244369;28;20104;-72
2022/01/22 09:13:43;;;;;;;23.13;12.05;;;;;;;;;;6246151;28;20341;-72
2022/01/22 09:16:45;;;;;;;25.50;10.85;;;;;;;;;;6243940;28;20031;-73
2022/01/22 09:19:47;;;;;;;22.98;10.02;;;;;;;;;;6246781;28;20044;-73
2022/01/22 09:22:48;;;;;;;15.20;6.47;;;;;;;;;;6270037;28;20488;-73
2022/01/22 09:25:49;;;;;;;41.03;14.15;;;;;;;;;;6255487;28;20027;-73
2022/01/22 09:28:50;;;;;;;23.15;11.40;;;;;;;;;;6251741;28;20064;-73
2022/01/22 09:31:50;;;;;;;22.67;9.07;;;;;;;;;;6249681;28;20017;-73
2022/01/22 09:34:50;;;;;;;28.63;12.15;;;;;;;;;;6250630;28;20507;-73
2022/01/22 09:37:51;;;;;;;17.67;7.25;;;;;;;;;;6265539;28;20076;-73
2022/01/22 09:40:52;;;;;;;20.33;9.82;;;;;;;;;;6261219;28;20071;-73
2022/01/22 09:43:55;;;;;;;20.13;6.80;;;;;;;;;;6252365;28;20460;-73
2022/01/22 09:46:56;;;;;;;13.75;6.53;;;;;;;;;;6252156;28;20029;-73
2022/01/22 09:49:56;;;;;;;17.02;6.55;;;;;;;;;;6261117;28;20040;-73
2022/01/22 09:52:57;;;;;;;21.27;8.25;;;;;;;;;;6253490;28;20028;-73
2022/01/22 09:55:57;;;;;;;13.13;6.00;;;;;;;;;;6251990;28;20079;-73
2022/01/22 09:58:59;;;;;;;16.63;7.32;;;;;;;;;;6252076;28;20079;-73
2022/01/22 10:02:06;;;;;;;15.85;4.25;;;;;;;;;;6250628;28;20021;-73
2022/01/22 10:05:25;;;;;;;14.48;5.65;;;;;;;;;;6248862;28;20030;-73
2022/01/22 10:08:32;;;;;;;14.63;6.45;;;;;;;;;;6252969;28;20056;-73
2022/01/22 10:11:33;;;;;;;13.85;7.25;;;;;;;;;;6256688;28;20383;-73
2022/01/22 10:14:33;;;;;;;21.70;11.90;;;;;;;;;;6257433;28;20025;-74
2022/01/22 10:17:49;;;;;;;17.17;8.10;;;;;;;;;;6256130;28;20025;-74
2022/01/22 10:20:50;;;;;;;12.55;6.07;;;;;;;;;;6244030;28;20076;-74
2022/01/22 10:23:50;;;;;;;11.98;4.32;;;;;;;;;;6242552;28;20025;-75
2022/01/22 10:27:10;;;;;;;13.20;5.90;;;;;;;;;;6262788;28;20104;-75
2022/01/22 10:30:13;;;;;;;18.42;5.93;;;;;;;;;;6262565;28;20036;-75
2022/01/22 10:36:21;;;;;;;14.60;6.80;;;;;;;;;;6254905;28;20087;-75
2022/01/22 10:39:23;;;;;;;14.43;4.85;;;;;;;;;;6246293;28;20101;-75
2022/01/22 10:42:26;;;;;;;8.55;3.80;;;;;;;;;;6253194;28;20107;-75
2022/01/22 10:45:31;;;;;;;10.85;5.25;;;;;;;;;;6254383;28;20779;-76
2022/01/22 10:48:31;;;;;;;13.77;6.95;;;;;;;;;;6242731;28;20563;-75
2022/01/22 10:51:43;;;;;;;12.35;5.65;;;;;;;;;;6242901;28;20079;-76
2022/01/22 10:54:46;;;;;;;11.30;5.63;;;;;;;;;;6250904;28;20032;-76
2022/01/22 10:58:06;;;;;;;12.48;6.18;;;;;;;;;;6251446;28;20400;-76
2022/01/22 11:01:07;;;;;;;14.25;5.82;;;;;;;;;;6238293;28;20056;-76
2022/01/22 11:04:11;;;;;;;16.98;8.57;;;;;;;;;;6253216;28;20025;-76
2022/01/22 11:07:16;;;;;;;18.05;7.15;;;;;;;;;;6252350;28;20025;-77
2022/01/22 11:10:16;;;;;;;13.00;5.75;;;;;;;;;;6228361;28;20029;-77
2022/01/22 11:13:16;;;;;;;13.43;5.65;;;;;;;;;;6251221;28;20040;-77
2022/01/22 11:16:17;;;;;;;28.00;8.70;;;;;;;;;;6267738;28;20399;-77
2022/01/22 11:19:22;;;;;;;14.52;6.07;;;;;;;;;;6261147;28;20013;-77
2022/01/22 11:22:26;;;;;;;35.45;15.40;;;;;;;;;;6257918;28;20688;-78
2022/01/22 11:25:26;;;;;;;19.35;8.48;;;;;;;;;;6258390;28;20475;-78
2022/01/22 11:28:26;;;;;;;13.02;5.05;;;;;;;;;;6249820;28;20126;-78
2022/01/22 11:31:27;;;;;;;20.58;8.60;;;;;;;;;;6263635;28;20036;-78
2022/01/22 11:34:31;;;;;;;19.13;6.85;;;;;;;;;;6266436;28;20024;-78
2022/01/22 11:37:39;;;;;;;15.45;5.82;;;;;;;;;;6261542;28;20067;-78
2022/01/22 11:40:39;;;;;;;11.40;5.25;;;;;;;;;;6272721;28;20090;-78
2022/01/22 11:44:00;;;;;;;15.30;5.88;;;;;;;;;;6273278;28;20016;-78
2022/01/22 11:47:22;;;;;;;19.13;6.75;;;;;;;;;;6287854;28;20023;-78
2022/01/22 11:50:23;;;;;;;21.08;8.25;;;;;;;;;;6268155;28;20035;-77
2022/01/22 11:53:30;;;;;;;29.25;10.40;;;;;;;;;;6251400;28;20028;-77
2022/01/22 11:56:40;;;;;;;19.52;7.93;;;;;;;;;;6251194;28;20483;-78
2022/01/22 11:59:43;;;;;;;15.80;8.20;;;;;;;;;;6255613;28;20017;-78
2022/01/22 12:02:44;;;;;;;13.93;7.03;;;;;;;;;;6261307;28;20021;-79
2022/01/22 12:05:53;;;;;;;24.88;10.57;;;;;;;;;;6270340;28;20074;-77
2022/01/22 12:09:15;;;;;;;18.92;10.15;;;;;;;;;;6268238;28;20025;-78
2022/01/22 12:15:52;;;;;;;23.70;9.90;;;;;;;;;;6246438;28;20045;-78
2022/01/22 12:18:59;;;;;;;26.40;10.15;;;;;;;;;;6263034;28;20468;-78
2022/01/22 12:21:59;;;;;;;26.73;10.98;;;;;;;;;;6263153;28;20013;-78
2022/01/22 12:25:08;;;;;;;37.28;12.75;;;;;;;;;;6245141;28;20009;-78
2022/01/22 12:28:10;;;;;;;27.55;10.75;;;;;;;;;;6261558;28;20047;-78
2022/01/22 12:31:15;;;;;;;24.77;9.18;;;;;;;;;;6262990;28;20061;-78
2022/01/22 12:34:15;;;;;;;33.17;12.35;;;;;;;;;;6271776;28;20024;-78
2022/01/22 12:37:16;;;;;;;31.40;12.57;;;;;;;;;;6257945;28;20017;-78
2022/01/22 12:40:31;;;;;;;27.60;8.40;;;;;;;;;;6259869;28;20477;-79
2022/01/22 12:43:34;;;;;;;33.05;15.45;;;;;;;;;;6254437;28;20022;-78
2022/01/22 12:46:35;;;;;;;56.53;22.38;;;;;;;;;;6231332;28;20431;-78
2022/01/22 12:49:36;;;;;;;31.48;11.75;;;;;;;;;;6262751;28;20320;-78
2022/01/22 12:52:40;;;;;;;31.88;16.25;;;;;;;;;;6246009;28;20118;-78
2022/01/22 12:58:59;;;;;;;31.67;14.57;;;;;;;;;;6245562;28;20025;-78
2022/01/22 13:02:00;;;;;;;29.10;13.55;;;;;;;;;;6260976;28;20101;-78
2022/01/22 13:05:01;;;;;;;23.08;10.70;;;;;;;;;;6260065;28;20362;-78
2022/01/22 13:08:06;;;;;;;20.73;8.50;;;;;;;;;;6252119;28;20032;-78
2022/01/22 13:11:08;;;;;;;24.17;10.57;;;;;;;;;;6250983;28;20120;-77
2022/01/22 13:14:08;;;;;;;;;;;;;;;;;;6254948;28;20133;-78
2022/01/22 13:17:12;;;;;;;28.00;13.30;;;;;;;;;;6244485;28;19917;-78
2022/01/22 13:20:18;;;;;;;25.65;11.68;;;;;;;;;;6248321;28;20025;-77
2022/01/22 13:23:20;;;;;;;18.63;9.98;;;;;;;;;;6270014;28;20036;-77
2022/01/22 13:26:36;;;;;;;22.85;11.07;;;;;;;;;;6269445;28;20029;-77
2022/01/22 13:29:39;;;;;;;22.85;10.20;;;;;;;;;;6250787;28;20136;-77
2022/01/22 13:32:55;;;;;;;33.97;13.27;;;;;;;;;;6235249;28;20025;-77
2022/01/22 13:36:10;;;;;;;24.83;10.90;;;;;;;;;;6250816;28;20072;-77
2022/01/22 13:39:36;;;;;;;31.65;16.15;;;;;;;;;;6269121;28;20020;-77
2022/01/22 13:49:19;;;;;;;25.88;12.73;;;;;;;;;;6269109;28;20037;-77
2022/01/22 13:52:21;;;;;;;24.73;10.95;;;;;;;;;;6269579;28;20504;-77
2022/01/22 13:55:21;;;;;;;15.77;7.72;;;;;;;;;;6268762;28;20021;-77
2022/01/22 13:58:21;;;;;;;18.95;8.27;;;;;;;;;;6269117;28;20068;-77
2022/01/22 14:01:28;;;;;;;38.20;19.05;;;;;;;;;;6250552;28;20056;-77
2022/01/22 14:04:36;;;;;;;27.52;16.35;;;;;;;;;;6268838;28;20024;-77
2022/01/22 14:07:40;;;;;;;16.52;9.07;;;;;;;;;;6268921;28;20025;-77
2022/01/22 14:10:41;;;;;;;16.40;9.43;;;;;;;;;;6269001;28;20059;-77
2022/01/22 14:13:41;;;;;;;15.95;7.50;;;;;;;;;;6267829;28;20025;-77
2022/01/22 14:16:46;;;;;;;20.90;11.15;;;;;;;;;;6250536;28;20119;-77
2022/01/22 14:19:56;;;;;;;28.70;11.52;;;;;;;;;;6270085;28;20025;-79
2022/01/22 14:23:01;;;;;;;17.20;8.43;;;;;;;;;;6285097;28;20036;-77
2022/01/22 14:26:02;;;;;;;34.85;11.52;;;;;;;;;;6273683;28;20035;-77
2022/01/22 14:29:11;;;;;;;25.15;8.20;;;;;;;;;;6263726;28;20048;-76
2022/01/22 14:32:17;;;;;;;15.70;8.63;;;;;;;;;;6242410;28;20025;-76
2022/01/22 14:35:18;;;;;;;23.23;9.98;;;;;;;;;;6240242;28;20044;-76
2022/01/22 14:38:19;;;;;;;27.85;11.13;;;;;;;;;;6239622;28;20481;-77
2022/01/22 14:44:41;;;;;;;19.52;8.43;;;;;;;;;;6242028;28;20029;-77
2022/01/22 14:47:41;;;;;;;19.05;9.07;;;;;;;;;;6241926;28;20067;-77
2022/01/22 14:50:42;;;;;;;25.23;11.40;;;;;;;;;;6241968;28;20025;-77
2022/01/22 14:53:42;;;;;;;30.52;12.90;;;;;;;;;;6240604;28;20021;-77
2022/01/22 14:56:42;;;;;;;31.27;12.88;;;;;;;;;;6235513;28;20112;-77
2022/01/22 14:59:43;;;;;;;35.40;16.80;;;;;;;;;;6233719;28;20033;-77
2022/01/22 15:02:43;;;;;;;33.22;11.60;;;;;;;;;;6239805;28;20030;-77
2022/01/22 15:05:44;;;;;;;24.98;10.10;;;;;;;;;;6236896;28;20060;-78
2022/01/22 15:08:44;;;;;;;24.45;12.15;;;;;;;;;;6235855;28;20021;-77
2022/01/22 15:11:44;;;;;;;24.08;12.23;;;;;;;;;;6234788;28;20025;-77
2022/01/22 15:14:50;;;;;;;34.90;13.23;;;;;;;;;;6226324;28;20021;-77
2022/01/22 15:20:50;;;;;;;25.88;13.40;;;;;;;;;;6227685;28;20029;-77
2022/01/22 15:23:50;;;;;;;29.65;13.00;;;;;;;;;;6235508;28;20107;-78
2022/01/22 15:26:51;;;;;;;46.50;17.63;;;;;;;;;;6238866;28;20388;-78
2022/01/22 15:29:58;;;;;;;34.30;12.50;;;;;;;;;;6260363;28;20108;-77
2022/01/22 15:33:04;;;;;;;34.50;13.27;;;;;;;;;;6262807;28;20022;-78
2022/01/22 15:36:04;;;;;;;23.30;14.38;;;;;;;;;;6264788;28;20020;-78
2022/01/22 15:39:07;;;;;;;20.70;11.80;;;;;;;;;;6272277;28;20035;-78
2022/01/22 15:42:07;;;;;;;30.23;14.05;;;;;;;;;;6272214;28;20025;-78
2022/01/22 15:45:08;;;;;;;34.53;13.32;;;;;;;;;;6266433;28;20025;-78
2022/01/22 15:48:10;;;;;;;30.42;10.73;;;;;;;;;;6262787;28;20461;-78
2022/01/22 15:51:10;;;;;;;20.80;10.75;;;;;;;;;;6265071;28;20117;-78
2022/01/22 15:54:11;;;;;;;30.58;15.35;;;;;;;;;;6248928;28;20469;-78
2022/01/22 15:57:13;;;;;;;25.98;11.05;;;;;;;;;;6265214;28;20032;-78
2022/01/22 16:00:13;;;;;;;26.58;11.77;;;;;;;;;;6271904;28;20550;-78
2022/01/22 16:03:14;;;;;;;31.55;11.48;;;;;;;;;;6248815;28;20021;-78
2022/01/22 16:06:22;;;;;;;33.72;13.80;;;;;;;;;;6265349;28;20013;-78
2022/01/22 16:09:30;;;;;;;22.25;11.15;;;;;;;;;;6266935;28;20032;-78
2022/01/22 16:12:31;;;;;;;29.90;12.32;;;;;;;;;;6262575;28;20029;-78
2022/01/22 16:15:31;;;;;;;38.97;14.98;;;;;;;;;;6246569;28;20036;-78
2022/01/22 16:18:33;;;;;;;68.30;30.77;;;;;;;;;;6247365;28;20503;-78
2022/01/22 16:21:33;;;;;;;33.50;16.13;;;;;;;;;;6250598;28;20021;-78
2022/01/22 16:24:34;;;;;;;32.97;13.10;;;;;;;;;;6230988;28;20014;-78
2022/01/22 16:27:35;;;;;;;47.50;16.75;;;;;;;;;;6226415;28;20448;-78
2022/01/22 16:30:35;;;;;;;47.28;18.17;;;;;;;;;;6232041;28;20473;-78
2022/01/22 16:33:35;;;;;;;44.63;15.70;;;;;;;;;;6250541;28;20254;-78
2022/01/22 16:36:35;;;;;;;40.53;18.65;;;;;;;;;;6251869;28;20025;-78
2022/01/22 16:39:36;;;;;;;51.85;21.25;;;;;;;;;;6226357;28;20017;-78
2022/01/22 16:42:46;;;;;;;37.70;17.25;;;;;;;;;;6243157;28;20071;-78
2022/01/22 16:45:56;;;;;;;27.52;12.05;;;;;;;;;;6243238;28;20029;-78
2022/01/22 16:52:53;;;;;;;43.83;17.02;;;;;;;;;;6245562;28;20501;-78
2022/01/22 16:55:40;;;;;;;30.83;12.98;;;;;;;;;;6241560;28;20468;-78
2022/01/22 16:58:47;;;;;;;91.55;40.03;;;;;;;;;;6247716;28;20036;-78
2022/01/22 17:01:49;;;;;;;28.38;15.82;;;;;;;;;;6246669;28;20025;-78
2022/01/22 17:04:54;;;;;;;;;;;;;;;;;;6245931;28;20392;-78
2022/01/22 17:08:11;;;;;;;43.30;20.77;;;;;;;;;;6225492;28;19927;-78
2022/01/22 17:11:19;;;;;;;27.38;14.02;;;;;;;;;;6244008;28;20022;-78
2022/01/22 17:14:19;;;;;;;46.38;18.58;;;;;;;;;;6250809;28;20021;-78
2022/01/22 17:17:20;;;;;;;34.78;14.98;;;;;;;;;;6239393;28;20115;-77
2022/01/22 17:20:21;;;;;;;28.42;13.57;;;;;;;;;;6251127;28;20393;-77
2022/01/22 17:23:21;;;;;;;29.08;13.50;;;;;;;;;;6243712;28;20036;-77
2022/01/22 17:26:21;;;;;;;26.13;13.88;;;;;;;;;;6249140;28;20025;-77
2022/01/22 17:29:22;;;;;;;22.95;12.60;;;;;;;;;;6251220;28;20127;-77
2022/01/22 17:32:23;;;;;;;19.92;9.95;;;;;;;;;;6260617;28;20020;-77
2022/01/22 17:35:23;;;;;;;18.02;9.95;;;;;;;;;;6262399;28;20025;-77
2022/01/22 17:38:24;;;;;;;61.30;23.35;;;;;;;;;;6249959;28;20021;-77
2022/01/22 17:41:25;;;;;;;37.85;15.60;;;;;;;;;;6246285;28;20021;-77
2022/01/22 17:44:34;;;;;;;27.03;12.67;;;;;;;;;;6229491;28;20028;-77
2022/01/22 17:47:35;;;;;;;60.83;27.75;;;;;;;;;;6249972;28;20096;-77
2022/01/22 17:50:37;;;;;;;26.80;13.75;;;;;;;;;;6248579;28;20018;-77
2022/01/22 17:53:37;;;;;;;49.92;19.05;;;;;;;;;;6255211;28;20032;-77
2022/01/22 17:56:38;;;;;;;48.78;21.58;;;;;;;;;;6253997;28;20013;-77
2022/01/22 17:59:38;;;;;;;35.28;13.70;;;;;;;;;;6249607;28;20035;-77
2022/01/22 18:02:38;;;;;;;30.27;16.70;;;;;;;;;;6251086;28;20495;-77
2022/01/22 18:05:39;;;;;;;33.80;17.10;;;;;;;;;;6264878;28;20499;-77
2022/01/22 18:08:39;;;;;;;36.28;15.77;;;;;;;;;;6256019;28;20017;-77
2022/01/22 18:11:41;;;;;;;22.58;9.45;;;;;;;;;;6253725;28;20078;-77
2022/01/22 18:14:41;;;;;;;;;;;;;;;;;;6256451;28;20484;-77
2022/01/22 18:17:42;;;;;;;37.35;19.15;;;;;;;;;;6239953;28;20443;-77
2022/01/22 18:20:42;;;;;;;42.13;19.90;;;;;;;;;;6258491;28;20682;-77
2022/01/22 18:23:42;;;;;;;32.55;17.05;;;;;;;;;;6245847;28;20029;-76
2022/01/22 18:26:43;;;;;;;50.13;22.35;;;;;;;;;;6246941;28;20412;-76
2022/01/22 18:29:43;;;;;;;35.45;17.83;;;;;;;;;;6241620;28;20029;-76
2022/01/22 18:32:44;;;;;;;30.98;16.15;;;;;;;;;;6247743;28;20091;-76
2022/01/22 18:35:45;;;;;;;41.17;18.67;;;;;;;;;;6255928;28;20473;-76
2022/01/22 18:38:45;;;;;;;26.67;11.80;;;;;;;;;;6248981;28;20404;-76
2022/01/22 18:41:48;;;;;;;39.75;19.98;;;;;;;;;;6254473;28;20465;-76
2022/01/22 18:44:52;;;;;;;12.52;6.32;;;;;;;;;;6252767;28;20013;-76
2022/01/22 18:47:53;;;;;;;36.33;19.92;;;;;;;;;;6248693;28;20263;-76
2022/01/22 18:50:54;;;;;;;34.17;15.20;;;;;;;;;;6244283;28;20022;-76
2022/01/22 18:53:54;;;;;;;46.42;20.75;;;;;;;;;;6238230;28;20392;-76
2022/01/22 18:56:54;;;;;;;30.70;12.38;;;;;;;;;;6233669;28;20124;-74
2022/01/22 18:59:55;;;;;;;36.28;12.95;;;;;;;;;;6246517;28;20017;-74
2022/01/22 19:02:55;;;;;;;20.95;11.77;;;;;;;;;;6245014;28;20037;-76
2022/01/22 19:05:55;;;;;;;18.55;8.07;;;;;;;;;;6227424;28;20071;-76
2022/01/22 19:08:56;;;;;;;28.65;12.60;;;;;;;;;;6241728;28;20053;-74
2022/01/22 19:11:56;;;;;;;45.10;17.92;;;;;;;;;;6229587;28;20415;-74
2022/01/22 19:14:56;;;;;;;78.32;27.30;;;;;;;;;;6245983;28;20114;-74
2022/01/22 19:17:56;;;;;;;54.95;22.25;;;;;;;;;;6231879;28;20144;-74
2022/01/22 19:21:02;;;;;;;46.33;20.13;;;;;;;;;;6247323;28;20017;-74
2022/01/22 19:24:08;;;;;;;45.60;19.20;;;;;;;;;;6236984;28;20381;-74
2022/01/22 19:30:32;;;;;;;32.22;12.32;;;;;;;;;;6266312;28;20504;-74
2022/01/22 19:33:32;;;;;;;38.25;16.98;;;;;;;;;;6241672;28;20819;-74
2022/01/22 19:36:33;;;;;;;44.33;18.70;;;;;;;;;;6250494;28;20079;-74
2022/01/22 19:39:33;;;;;;;41.13;16.88;;;;;;;;;;6262382;28;20017;-74
2022/01/22 19:42:38;;;;;;;37.42;14.98;;;;;;;;;;6266011;28;20527;-74
2022/01/22 19:45:40;;;;;;;43.92;19.70;;;;;;;;;;6247873;28;20108;-74
2022/01/22 19:48:40;;;;;;;16.42;7.57;;;;;;;;;;6265472;28;20163;-74